Time;durP1;ratioP1;P1;durP2;ratioP2;P2;SDS_P1;SDS_P2;PMS_P1;PMS_P2;Temp;Humidity;BMP_temperature;BMP_pressure;BME280_temperature;BME280_humidity;BME280_pressure;Samples;Min_cycle;Max_cycle;Signal;HPM_P1;HPM_P2
2023/01/14 00:00:14;;;;;;;72.38;30.33;;;6.70;99.90;;;;;;5052939;28;20025;-62
2023/01/14 00:02:40;;;;;;;66.88;17.20;;;6.70;99.90;;;;;;5051722;28;20051;-62
2023/01/14 00:05:06;;;;;;;74.10;18.50;;;6.70;99.90;;;;;;5053092;28;20420;-61
2023/01/14 00:07:31;;;;;;;64.25;16.75;;;6.80;99.90;;;;;;5052750;28;20158;-61
2023/01/14 00:09:57;;;;;;;66.78;19.27;;;6.90;99.90;;;;;;5052889;28;20021;-61
2023/01/14 00:12:23;;;;;;;62.47;18.42;;;6.70;99.90;;;;;;5053005;28;20067;-61
2023/01/14 00:14:48;;;;;;;70.55;14.93;;;6.70;99.90;;;;;;5052759;28;20043;-61
2023/01/14 00:17:14;;;;;;;55.75;14.32;;;6.80;99.90;;;;;;5052683;28;20032;-62
2023/01/14 00:19:40;;;;;;;59.05;15.27;;;6.90;99.90;;;;;;5052686;28;20025;-62
2023/01/14 00:22:05;;;;;;;67.25;17.45;;;6.80;99.90;;;;;;5052492;28;20100;-62
2023/01/14 00:24:31;;;;;;;69.22;18.45;;;6.60;99.90;;;;;;5052797;28;20047;-62
2023/01/14 00:26:57;;;;;;;53.83;16.08;;;6.60;99.90;;;;;;5052530;28;20143;-62
2023/01/14 00:29:30;;;;;;;65.25;16.08;;;6.60;99.90;;;;;;5052613;28;20037;-61
2023/01/14 00:32:03;;;;;;;67.90;19.35;;;6.60;99.90;;;;;;5052787;28;20024;-62
2023/01/14 00:34:30;;;;;;;50.22;15.23;;;6.60;99.90;;;;;;5052039;28;20389;-62
2023/01/14 00:36:56;;;;;;;45.90;14.13;;;6.50;99.90;;;;;;5052199;28;20025;-62
2023/01/14 00:39:22;;;;;;;54.60;15.45;;;6.60;99.90;;;;;;5052788;28;20127;-62
2023/01/14 00:41:48;;;;;;;52.22;13.25;;;6.50;99.90;;;;;;5052256;28;20111;-61
2023/01/14 00:44:14;;;;;;;46.22;13.45;;;6.70;99.90;;;;;;5052059;28;20045;-61
2023/01/14 00:46:41;;;;;;;58.08;15.18;;;6.60;99.90;;;;;;5050824;28;20389;-61
2023/01/14 00:49:13;;;;;;;49.35;15.27;;;6.60;99.90;;;;;;5051651;28;20418;-61
2023/01/14 00:51:39;;;;;;;44.20;14.20;;;6.50;99.90;;;;;;5052305;28;20025;-61
2023/01/14 00:54:05;;;;;;;56.35;15.25;;;6.50;99.90;;;;;;5052191;28;20032;-61
2023/01/14 00:56:31;;;;;;;43.00;13.25;;;6.60;99.90;;;;;;5052634;28;20044;-61
2023/01/14 00:58:57;;;;;;;46.10;13.35;;;6.50;99.90;;;;;;5052094;28;20551;-62
2023/01/14 01:01:22;;;;;;;35.97;12.23;;;6.40;99.90;;;;;;5052002;28;20025;-62
2023/01/14 01:03:51;;;;;;;45.90;13.10;;;6.40;99.90;;;;;;5051672;28;20048;-61
2023/01/14 01:06:19;;;;;;;39.13;11.73;;;6.40;99.90;;;;;;5052017;28;20029;-62
2023/01/14 01:08:45;;;;;;;39.53;11.93;;;6.30;99.90;;;;;;5052000;28;20163;-61
2023/01/14 01:11:12;;;;;;;39.75;12.07;;;6.30;99.90;;;;;;5052227;28;20021;-62
2023/01/14 01:13:38;;;;;;;42.13;12.80;;;6.20;99.90;;;;;;5052009;28;20024;-61
2023/01/14 01:16:08;;;;;;;42.67;11.90;;;6.20;99.90;;;;;;5052100;28;20551;-62
2023/01/14 01:18:35;;;;;;;35.83;10.98;;;6.10;99.90;;;;;;5051445;28;20021;-61
2023/01/14 01:21:08;;;;;;;37.75;10.85;;;6.20;99.90;;;;;;5051988;28;20041;-61
2023/01/14 01:23:34;;;;;;;35.53;11.23;;;6.20;99.90;;;;;;5052191;28;20017;-61
2023/01/14 01:26:05;;;;;;;30.92;11.13;;;6.20;99.90;;;;;;5051697;28;20486;-62
2023/01/14 01:28:31;;;;;;;31.30;10.68;;;6.20;99.90;;;;;;5052313;28;20045;-62
2023/01/14 01:31:09;;;;;;;32.85;10.65;;;6.20;99.90;;;;;;5051837;28;20116;-62
2023/01/14 01:33:35;;;;;;;31.42;9.57;;;6.20;99.90;;;;;;5051598;28;20104;-62
2023/01/14 01:36:03;;;;;;;33.17;10.52;;;6.20;99.90;;;;;;5051496;28;20124;-62
2023/01/14 01:38:29;;;;;;;31.60;10.32;;;6.20;99.90;;;;;;5052385;28;20100;-62
2023/01/14 01:40:56;;;;;;;31.98;9.82;;;6.10;99.90;;;;;;5051654;28;20105;-62
2023/01/14 01:43:25;;;;;;;25.58;9.13;;;6.20;99.90;;;;;;5051438;28;20021;-61
2023/01/14 01:45:52;;;;;;;28.90;10.05;;;6.20;99.90;;;;;;5051188;28;20029;-61
2023/01/14 01:48:33;;;;;;;28.45;10.40;;;6.20;99.90;;;;;;5051567;28;20029;-62
2023/01/14 01:51:12;;;;;;;28.95;10.50;;;6.20;99.90;;;;;;5052000;28;20036;-62
2023/01/14 01:53:42;;;;;;;23.02;9.35;;;6.20;99.90;;;;;;5054567;28;20056;-62
2023/01/14 01:56:12;;;;;;;27.70;9.13;;;6.20;99.90;;;;;;5055180;28;20072;-62
2023/01/14 01:58:40;;;;;;;30.42;10.00;;;6.30;99.90;;;;;;5055396;28;20021;-62
2023/01/14 02:01:05;;;;;;;31.00;10.10;;;6.40;99.90;;;;;;5055064;28;20029;-62
2023/01/14 02:03:43;;;;;;;26.90;9.93;;;6.30;99.90;;;;;;5055162;28;20653;-62
2023/01/14 02:06:09;;;;;;;30.23;10.48;;;6.30;99.90;;;;;;5055531;28;20021;-62
2023/01/14 02:08:39;;;;;;;29.85;10.80;;;6.40;99.90;;;;;;5055174;28;20025;-62
2023/01/14 02:11:10;;;;;;;33.35;10.75;;;6.30;99.90;;;;;;5055350;28;20044;-62
2023/01/14 02:13:52;;;;;;;31.02;12.77;;;6.40;99.90;;;;;;5055104;28;20036;-62
2023/01/14 02:16:46;;;;;;;29.27;10.75;;;6.30;99.90;;;;;;5054534;28;20037;-61
2023/01/14 02:19:29;;;;;;;31.00;11.68;;;6.40;99.90;;;;;;5054995;28;20013;-62
2023/01/14 02:22:04;;;;;;;35.55;12.38;;;6.30;99.90;;;;;;5053650;28;20398;-61
2023/01/14 02:24:49;;;;;;;37.10;13.52;;;6.40;99.90;;;;;;5054704;28;20033;-62
2023/01/14 02:27:50;;;;;;;42.95;17.52;;;6.40;99.90;;;;;;5054913;28;20071;-61
2023/01/14 02:30:21;;;;;;;49.65;20.05;;;6.40;99.90;;;;;;5050198;28;20055;-61
2023/01/14 02:33:16;;;;;;;49.30;19.42;;;6.40;99.90;;;;;;5054785;28;20033;-62
2023/01/14 02:36:03;;;;;;;53.85;22.65;;;6.40;99.90;;;;;;5054241;28;20128;-61
2023/01/14 02:38:37;;;;;;;66.68;26.25;;;6.50;99.90;;;;;;5054686;28;20021;-62
2023/01/14 02:44:15;;;;;;;64.20;24.42;;;6.50;99.90;;;;;;5012427;28;20038;-62
2023/01/14 02:46:46;;;;;;;65.65;24.10;;;6.40;99.90;;;;;;5012029;28;20049;-61
2023/01/14 02:49:18;;;;;;;59.60;24.45;;;6.30;99.90;;;;;;5012435;28;20049;-61
2023/01/14 02:51:46;;;;;;;56.75;22.52;;;6.30;99.90;;;;;;5012548;28;20029;-61
2023/01/14 02:54:11;;;;;;;54.20;22.90;;;6.40;99.90;;;;;;5012517;28;20030;-61
2023/01/14 02:56:39;;;;;;;51.70;21.33;;;6.40;99.90;;;;;;5012227;28;20054;-62
2023/01/14 02:59:04;;;;;;;50.85;21.45;;;6.40;99.90;;;;;;5012024;28;20129;-62
2023/01/14 03:01:42;;;;;;;51.80;22.08;;;6.40;99.90;;;;;;5012054;28;20109;-62
2023/01/14 03:04:20;;;;;;;60.35;21.17;;;6.40;99.90;;;;;;5011989;28;20022;-62
2023/01/14 03:07:03;;;;;;;57.78;22.13;;;6.40;99.90;;;;;;5012245;28;20372;-62
2023/01/14 03:09:29;;;;;;;;;;;6.40;99.90;;;;;;5013002;28;20129;-62
2023/01/14 03:12:18;;;;;;;46.08;18.98;;;6.30;99.90;;;;;;5012084;28;20000;-62
2023/01/14 03:14:56;;;;;;;45.78;17.70;;;6.30;99.90;;;;;;5011508;28;20049;-61
2023/01/14 03:17:25;;;;;;;47.67;17.90;;;6.30;99.90;;;;;;5012342;28;20104;-61
2023/01/14 03:20:09;;;;;;;37.42;16.95;;;6.30;99.90;;;;;;5011968;28;20037;-62
2023/01/14 03:22:36;;;;;;;43.58;15.90;;;6.20;99.90;;;;;;5053799;28;20037;-62
2023/01/14 03:25:05;;;;;;;39.28;16.02;;;6.20;99.90;;;;;;5053721;28;20021;-61
2023/01/14 03:27:35;;;;;;;39.38;15.75;;;6.20;99.90;;;;;;5053663;28;20025;-61
2023/01/14 03:30:15;;;;;;;33.47;14.40;;;6.20;99.90;;;;;;5053616;28;20025;-62
2023/01/14 03:33:06;;;;;;;36.13;13.95;;;6.10;99.90;;;;;;5053652;28;20104;-61
2023/01/14 03:35:37;;;;;;;36.90;14.40;;;6.20;99.90;;;;;;5046671;28;20048;-61
2023/01/14 03:38:12;;;;;;;32.90;13.40;;;6.10;99.90;;;;;;5053528;28;20044;-61
2023/01/14 03:40:39;;;;;;;32.42;12.57;;;6.10;99.90;;;;;;5053456;28;20021;-61
2023/01/14 03:43:28;;;;;;;35.92;12.77;;;6.10;99.90;;;;;;5053232;28;20029;-62
2023/01/14 03:45:54;;;;;;;29.52;11.43;;;6.10;99.90;;;;;;5053143;28;20028;-61
2023/01/14 03:48:20;;;;;;;33.80;12.40;;;6.10;99.90;;;;;;5053625;28;20036;-62
2023/01/14 03:50:55;;;;;;;29.20;12.40;;;6.10;99.90;;;;;;5053207;28;20029;-61
2023/01/14 03:53:47;;;;;;;31.48;11.80;;;6.10;99.90;;;;;;5053364;28;20493;-61
2023/01/14 03:56:13;;;;;;;26.65;11.20;;;6.10;99.90;;;;;;5052530;28;20378;-61
2023/01/14 03:59:04;;;;;;;23.40;10.52;;;6.10;99.90;;;;;;5053112;28;20070;-61
2023/01/14 04:01:45;;;;;;;31.08;10.20;;;6.20;99.90;;;;;;5053028;28;20028;-61
2023/01/14 04:04:12;;;;;;;25.23;9.73;;;6.20;99.90;;;;;;5052580;28;20021;-62
2023/01/14 04:06:38;;;;;;;24.35;10.18;;;6.20;99.90;;;;;;5053320;28;20406;-61
2023/01/14 04:09:05;;;;;;;25.33;10.35;;;6.30;99.90;;;;;;5052854;28;20017;-61
2023/01/14 04:11:31;;;;;;;20.55;9.43;;;6.30;99.90;;;;;;5052514;28;20390;-61
2023/01/14 04:16:41;;;;;;;20.33;9.50;;;6.20;99.90;;;;;;5052080;28;20040;-61
2023/01/14 04:19:07;;;;;;;17.73;8.48;;;6.30;99.90;;;;;;5053249;28;20025;-62
2023/01/14 04:21:33;;;;;;;19.17;8.23;;;6.30;99.90;;;;;;5052625;28;20136;-61
2023/01/14 04:23:58;;;;;;;16.27;7.57;;;6.30;99.90;;;;;;5051393;28;20135;-62
2023/01/14 04:26:24;;;;;;;21.33;8.27;;;6.30;99.90;;;;;;5052667;28;20036;-61
2023/01/14 04:28:50;;;;;;;18.95;7.78;;;6.30;99.90;;;;;;5052500;28;20025;-61
2023/01/14 04:31:15;;;;;;;18.42;7.15;;;6.20;99.90;;;;;;5052642;28;20251;-61
2023/01/14 04:33:41;;;;;;;15.27;6.70;;;6.20;99.90;;;;;;5052498;28;20389;-61
2023/01/14 04:36:08;;;;;;;18.20;7.65;;;6.20;99.90;;;;;;5052546;28;20029;-61
2023/01/14 04:38:33;;;;;;;16.40;7.13;;;6.20;99.90;;;;;;5052710;28;20021;-61
2023/01/14 04:40:59;;;;;;;12.98;6.35;;;6.20;99.90;;;;;;5052210;28;20039;-62
2023/01/14 04:43:25;;;;;;;14.55;6.85;;;6.20;99.90;;;;;;5052234;28;20045;-61
2023/01/14 04:45:52;;;;;;;15.20;6.65;;;6.20;99.90;;;;;;5052533;28;20045;-61
2023/01/14 04:48:19;;;;;;;14.35;6.78;;;6.20;99.90;;;;;;5052441;28;20051;-61
2023/01/14 04:50:46;;;;;;;17.65;6.60;;;6.20;99.90;;;;;;5052227;28;20024;-61
2023/01/14 04:53:21;;;;;;;15.07;7.13;;;6.20;99.90;;;;;;5052504;28;20025;-61
2023/01/14 04:55:50;;;;;;;14.30;6.45;;;6.10;99.90;;;;;;5051669;28;20416;-61
2023/01/14 04:58:16;;;;;;;11.48;6.60;;;6.10;99.90;;;;;;5052104;28;20051;-61
2023/01/14 05:00:43;;;;;;;13.75;7.40;;;6.10;99.90;;;;;;5052109;28;20032;-61
2023/01/14 05:03:12;;;;;;;11.38;6.95;;;6.00;99.90;;;;;;5052433;28;20021;-62
2023/01/14 05:05:38;;;;;;;14.00;7.07;;;6.10;99.90;;;;;;5051868;28;20036;-61
2023/01/14 05:08:06;;;;;;;12.75;6.60;;;6.00;99.90;;;;;;5051989;28;20033;-61
2023/01/14 05:10:32;;;;;;;14.05;7.10;;;6.10;99.90;;;;;;5051483;28;20504;-61
2023/01/14 05:12:58;;;;;;;13.55;6.35;;;6.00;99.90;;;;;;5051954;28;20025;-61
2023/01/14 05:15:31;;;;;;;14.18;6.70;;;6.10;99.90;;;;;;5051937;28;20032;-62
2023/01/14 05:17:57;;;;;;;11.18;6.10;;;6.10;99.90;;;;;;5052118;28;20021;-62
2023/01/14 05:20:23;;;;;;;16.70;6.20;;;6.00;99.90;;;;;;5052191;28;20367;-61
2023/01/14 05:22:50;;;;;;;12.77;6.55;;;6.00;99.90;;;;;;5051803;28;20029;-61
2023/01/14 05:25:16;;;;;;;14.90;6.57;;;6.00;99.90;;;;;;5051778;28;20060;-61
2023/01/14 05:27:42;;;;;;;11.35;5.78;;;5.90;99.90;;;;;;5054853;28;20056;-61
2023/01/14 05:30:08;;;;;;;12.70;6.30;;;5.90;99.90;;;;;;5055979;28;20028;-61
2023/01/14 05:32:34;;;;;;;10.65;5.72;;;5.90;99.90;;;;;;5055924;28;20017;-61
2023/01/14 05:35:00;;;;;;;12.18;5.32;;;5.90;99.90;;;;;;5055707;28;20478;-61
2023/01/14 05:37:26;;;;;;;11.10;5.20;;;5.90;99.90;;;;;;5056139;28;20035;-61
2023/01/14 05:39:51;;;;;;;9.68;4.90;;;6.00;99.90;;;;;;5055535;28;20029;-61
2023/01/14 05:47:46;;;;;;;10.63;5.35;;;5.90;99.90;;;;;;5055444;28;20059;-61
2023/01/14 05:50:12;;;;;;;11.32;5.18;;;6.00;99.90;;;;;;5055447;28;20029;-61
2023/01/14 05:52:38;;;;;;;11.00;5.18;;;6.00;99.90;;;;;;5055142;28;20413;-61
2023/01/14 05:55:05;;;;;;;9.40;4.70;;;6.00;99.90;;;;;;5055384;28;20025;-61
2023/01/14 05:57:30;;;;;;;9.73;4.90;;;6.10;99.90;;;;;;5055712;28;20516;-61
2023/01/14 05:59:57;;;;;;;10.30;4.90;;;6.00;99.90;;;;;;5055414;28;20049;-61
2023/01/14 06:07:55;;;;;;;11.13;4.65;;;6.10;99.90;;;;;;5055117;28;20032;-61
2023/01/14 06:10:24;;;;;;;8.57;4.50;;;6.00;99.90;;;;;;5053973;28;20478;-61
2023/01/14 06:13:05;;;;;;;10.90;4.43;;;6.00;99.90;;;;;;5055037;28;20033;-61
2023/01/14 06:15:35;;;;;;;9.38;4.30;;;6.00;99.90;;;;;;5054962;28;20082;-61
2023/01/14 06:18:14;;;;;;;11.80;4.32;;;5.90;99.90;;;;;;5054934;28;20511;-61
2023/01/14 06:20:43;;;;;;;7.43;3.78;;;5.90;99.90;;;;;;5055060;28;20526;-61
2023/01/14 06:23:09;;;;;;;11.23;4.13;;;5.90;99.90;;;;;;5054588;28;20428;-61
2023/01/14 06:25:35;;;;;;;9.18;4.75;;;5.90;99.90;;;;;;5054806;28;20119;-61
2023/01/14 06:28:01;;;;;;;9.35;4.28;;;5.80;99.90;;;;;;5055146;28;20059;-61
2023/01/14 06:30:28;;;;;;;8.82;4.25;;;5.80;99.90;;;;;;5054828;28;20032;-61
2023/01/14 06:32:55;;;;;;;7.15;3.40;;;5.80;99.90;;;;;;5054788;28;20056;-61
2023/01/14 06:35:21;;;;;;;5.25;3.70;;;5.80;99.90;;;;;;5054476;28;20103;-61
2023/01/14 06:37:47;;;;;;;8.77;4.25;;;5.70;99.90;;;;;;5053907;28;20371;-61
2023/01/14 06:40:14;;;;;;;7.40;4.03;;;5.80;99.90;;;;;;5054272;28;20055;-61
2023/01/14 06:42:42;;;;;;;7.50;4.00;;;5.70;99.90;;;;;;5055111;28;20060;-61
2023/01/14 06:45:10;;;;;;;8.40;4.03;;;5.60;99.90;;;;;;5054487;28;20402;-61
2023/01/14 06:47:36;;;;;;;8.18;3.85;;;5.60;99.90;;;;;;5054180;28;20036;-61
2023/01/14 06:50:03;;;;;;;6.80;3.95;;;5.80;99.90;;;;;;5054912;28;20052;-61
2023/01/14 06:52:28;;;;;;;9.73;4.10;;;5.80;99.90;;;;;;5054067;28;20024;-61
2023/01/14 06:54:55;;;;;;;11.35;6.20;;;5.90;99.90;;;;;;5054222;28;20029;-61
2023/01/14 06:57:22;;;;;;;10.55;5.30;;;6.00;99.90;;;;;;5054583;28;20083;-61
2023/01/14 06:59:48;;;;;;;9.40;5.80;;;6.10;99.90;;;;;;5054385;28;20021;-61
2023/01/14 07:02:14;;;;;;;10.55;5.38;;;6.10;99.90;;;;;;5054236;28;20018;-61
2023/01/14 07:04:40;;;;;;;7.63;4.20;;;6.10;99.90;;;;;;5053815;28;20389;-61
2023/01/14 07:07:06;;;;;;;7.35;4.55;;;6.20;99.90;;;;;;5053921;28;20497;-61
2023/01/14 07:09:32;;;;;;;9.50;5.25;;;6.20;99.90;;;;;;5054072;28;20037;-61
2023/01/14 07:11:58;;;;;;;7.63;4.30;;;6.20;99.90;;;;;;5053940;28;20116;-61
2023/01/14 07:14:23;;;;;;;6.50;3.53;;;6.20;99.90;;;;;;5053956;28;20029;-61
2023/01/14 07:16:49;;;;;;;5.97;3.80;;;6.30;99.90;;;;;;5053836;28;20036;-61
2023/01/14 07:19:15;;;;;;;7.78;3.65;;;6.30;99.90;;;;;;5053489;28;20312;-61
2023/01/14 07:21:41;;;;;;;6.05;3.65;;;6.40;99.90;;;;;;5054102;28;20021;-61
2023/01/14 07:24:07;;;;;;;5.97;3.50;;;6.30;99.90;;;;;;5053821;28;20351;-60
2023/01/14 07:26:33;;;;;;;6.25;3.40;;;6.20;99.90;;;;;;5052296;28;20029;-60
2023/01/14 07:28:58;;;;;;;6.65;3.47;;;6.30;99.90;;;;;;5053641;28;20021;-61
2023/01/14 07:31:24;;;;;;;7.38;3.65;;;6.20;99.90;;;;;;5053670;28;20021;-60
2023/01/14 07:33:50;;;;;;;5.22;3.38;;;6.20;99.90;;;;;;5053214;28;20025;-60
2023/01/14 07:36:16;;;;;;;5.82;3.17;;;6.20;99.90;;;;;;5053624;28;20033;-61
2023/01/14 07:38:42;;;;;;;6.82;3.35;;;6.20;99.90;;;;;;5053399;28;20035;-60
2023/01/14 07:41:18;;;;;;;4.40;2.97;;;6.20;99.90;;;;;;5053536;28;20021;-60
2023/01/14 07:43:44;;;;;;;7.30;3.42;;;6.20;99.90;;;;;;5053212;28;20040;-61
2023/01/14 07:46:10;;;;;;;8.20;5.00;;;6.20;99.90;;;;;;5053185;28;20024;-61
2023/01/14 07:48:36;;;;;;;13.50;7.82;;;6.20;99.90;;;;;;5053170;28;20026;-60
2023/01/14 07:51:03;;;;;;;6.28;4.00;;;6.20;99.90;;;;;;5051987;28;20037;-61
2023/01/14 07:53:30;;;;;;;6.63;3.85;;;6.10;99.90;;;;;;5052736;28;20033;-60
2023/01/14 07:55:55;;;;;;;9.38;5.75;;;6.10;99.90;;;;;;5052303;28;20033;-60
2023/01/14 07:58:23;;;;;;;224.27;130.40;;;6.10;99.90;;;;;;5052496;28;20498;-60
2023/01/14 08:00:48;;;;;;;42.20;27.27;;;6.10;99.90;;;;;;5053078;28;20032;-61
2023/01/14 08:03:14;;;;;;;11.60;5.55;;;6.10;99.90;;;;;;5052651;28;20025;-61
2023/01/14 08:05:40;;;;;;;9.63;5.00;;;6.10;99.90;;;;;;5052790;28;20036;-61
2023/01/14 08:08:06;;;;;;;8.10;4.30;;;6.10;99.90;;;;;;5052932;28;20029;-61
2023/01/14 08:10:38;;;;;;;8.32;4.53;;;6.10;99.90;;;;;;5110474;27;20442;-61
2023/01/14 08:13:04;;;;;;;7.13;4.25;;;6.20;99.90;;;;;;5110048;28;20028;-61
2023/01/14 08:15:30;;;;;;;6.88;4.32;;;6.20;99.90;;;;;;5109795;28;20518;-61
2023/01/14 08:17:56;;;;;;;474.50;343.10;;;6.20;99.90;;;;;;5109940;28;20016;-61
2023/01/14 08:20:22;;;;;;;85.57;20.17;;;6.30;99.90;;;;;;5109782;28;20028;-61
2023/01/14 08:22:56;;;;;;;472.77;58.38;;;6.30;99.90;;;;;;5109894;28;20024;-61
2023/01/14 08:25:21;;;;;;;649.97;89.72;;;6.40;99.90;;;;;;5109788;28;20024;-61
2023/01/14 08:27:47;;;;;;;474.48;61.92;;;6.40;99.90;;;;;;5109705;28;20028;-61
2023/01/14 08:30:13;;;;;;;63.45;12.55;;;6.40;99.90;;;;;;5109588;28;20046;-61
2023/01/14 08:32:39;;;;;;;131.48;67.75;;;6.40;99.90;;;;;;5109308;28;20012;-61
2023/01/14 08:35:05;;;;;;;481.35;315.40;;;6.50;99.90;;;;;;5109454;28;20539;-61
2023/01/14 08:37:31;;;;;;;41.22;16.70;;;6.50;99.90;;;;;;5109795;28;20066;-61
2023/01/14 08:39:56;;;;;;;20.70;6.80;;;6.50;99.90;;;;;;5109479;28;20484;-61
2023/01/14 08:42:22;;;;;;;127.28;17.70;;;6.50;99.90;;;;;;5109358;28;20027;-62
2023/01/14 08:44:48;;;;;;;545.08;72.25;;;6.50;99.90;;;;;;5109480;28;20067;-61
2023/01/14 08:47:14;;;;;;;146.35;22.75;;;6.50;99.90;;;;;;5108662;28;20019;-61
2023/01/14 08:49:39;;;;;;;305.50;37.60;;;6.60;99.90;;;;;;5109603;28;20024;-61
2023/01/14 08:52:06;;;;;;;288.10;33.30;;;6.70;99.90;;;;;;5109289;28;20491;-61
2023/01/14 08:54:33;;;;;;;198.50;26.92;;;6.80;99.90;;;;;;5109259;28;20028;-61
2023/01/14 08:57:01;;;;;;;1288.88;171.90;;;6.90;99.90;;;;;;5109140;28;20027;-61
2023/01/14 08:59:26;;;;;;;87.25;13.80;;;6.90;99.90;;;;;;5109186;28;20031;-61
2023/01/14 09:01:52;;;;;;;255.80;32.22;;;7.10;99.90;;;;;;5108749;28;20016;-61
2023/01/14 09:04:18;;;;;;;595.17;69.60;;;7.20;99.90;;;;;;5108874;28;20023;-61
2023/01/14 09:17:42;;;;;;;10.48;5.55;;;8.70;99.90;;;;;;5108707;28;20085;-61
2023/01/14 09:20:14;;;;;;;10.90;5.50;;;8.80;99.90;;;;;;5106314;28;20020;-62
2023/01/14 09:22:40;;;;;;;228.43;42.58;;;8.80;99.90;;;;;;5095062;28;20396;-61
2023/01/14 09:25:06;;;;;;;561.92;73.25;;;9.00;99.90;;;;;;5094964;28;20046;-61
2023/01/14 09:27:32;;;;;;;26.25;7.53;;;8.90;99.90;;;;;;5094924;28;20030;-61
2023/01/14 09:29:59;;;;;;;9.73;6.00;;;9.50;99.90;;;;;;5094556;28;20107;-61
2023/01/14 09:32:25;;;;;;;16.02;6.20;;;9.00;99.90;;;;;;5094881;28;20173;-61
2023/01/14 09:34:52;;;;;;;12.48;6.80;;;8.90;99.90;;;;;;5094859;28;20705;-61
2023/01/14 09:37:20;;;;;;;14.82;6.40;;;9.00;99.90;;;;;;5094607;28;20013;-61
2023/01/14 09:39:47;;;;;;;11.07;6.97;;;8.80;99.90;;;;;;5094742;28;20035;-61
2023/01/14 09:42:25;;;;;;;47.72;11.98;;;9.00;99.90;;;;;;5094651;28;20024;-60
2023/01/14 09:45:09;;;;;;;12.25;8.38;;;9.30;99.90;;;;;;5094308;28;20047;-61
2023/01/14 09:47:35;;;;;;;9.88;6.60;;;9.30;99.90;;;;;;5094619;28;20107;-61
2023/01/14 09:50:03;;;;;;;9.63;6.43;;;9.70;99.90;;;;;;5094513;28;20135;-61
2023/01/14 09:53:13;;;;;;;10.30;6.72;;;10.50;99.90;;;;;;5094442;28;20431;-61
2023/01/14 09:55:53;;;;;;;11.07;6.07;;;12.20;99.90;;;;;;5072019;28;20069;-61
2023/01/14 09:58:35;;;;;;;13.02;7.38;;;12.60;99.90;;;;;;5071860;28;20090;-61
2023/01/14 10:01:06;;;;;;;969.22;130.52;;;13.10;99.90;;;;;;5072066;28;20028;-61
2023/01/14 10:03:38;;;;;;;138.68;21.83;;;12.40;99.90;;;;;;5071805;28;20016;-61
2023/01/14 10:06:11;;;;;;;78.80;15.82;;;11.70;99.90;;;;;;5071668;28;20532;-61
2023/01/14 10:08:47;;;;;;;14.07;7.18;;;11.30;99.90;;;;;;5071524;28;20044;-61
2023/01/14 10:11:14;;;;;;;13.65;7.32;;;11.20;99.90;;;;;;5071634;28;20037;-61
2023/01/14 10:13:58;;;;;;;12.05;7.13;;;11.20;99.90;;;;;;5071418;28;20032;-61
2023/01/14 10:16:28;;;;;;;;;;;11.00;99.90;;;;;;5072398;28;20543;-61
2023/01/14 10:18:57;;;;;;;9.73;6.82;;;11.20;99.90;;;;;;5071682;28;19904;-61
2023/01/14 10:21:48;;;;;;;9.60;7.30;;;11.30;99.90;;;;;;5071521;28;20029;-61
2023/01/14 10:24:16;;;;;;;11.15;6.80;;;11.10;99.90;;;;;;5071713;28;20033;-61
2023/01/14 10:26:44;;;;;;;10.02;6.78;;;11.10;99.90;;;;;;5071200;28;20078;-65
2023/01/14 10:29:15;;;;;;;10.27;7.20;;;11.10;99.90;;;;;;5070890;28;20039;-61
2023/01/14 10:31:54;;;;;;;14.02;7.57;;;11.10;99.90;;;;;;5088231;28;20032;-61
2023/01/14 10:34:46;;;;;;;10.43;7.32;;;11.00;99.90;;;;;;5093260;28;20073;-61
2023/01/14 10:37:13;;;;;;;10.25;7.72;;;11.20;99.90;;;;;;5093467;28;20048;-61
2023/01/14 10:39:47;;;;;;;11.20;7.68;;;11.20;99.90;;;;;;5093826;28;20027;-62
2023/01/14 10:42:13;;;;;;;33.97;10.05;;;11.70;99.90;;;;;;5093258;28;20554;-61
2023/01/14 10:44:43;;;;;;;16.67;7.90;;;11.90;99.90;;;;;;5093370;28;20028;-62
2023/01/14 10:47:16;;;;;;;12.63;7.40;;;12.10;99.90;;;;;;5093211;28;20061;-62
2023/01/14 10:49:58;;;;;;;204.07;30.58;;;12.10;99.90;;;;;;5093424;28;20032;-61
2023/01/14 10:52:26;;;;;;;29.30;9.82;;;12.20;99.90;;;;;;5093284;28;20032;-61
2023/01/14 10:55:38;;;;;;;33.70;9.90;;;12.00;99.90;;;;;;5093560;28;20030;-62
2023/01/14 10:58:06;;;;;;;14.13;8.07;;;12.30;99.90;;;;;;5090761;28;20028;-62
2023/01/14 11:00:38;;;;;;;9.98;6.72;;;12.70;99.90;;;;;;5093189;28;20032;-62
2023/01/14 11:03:27;;;;;;;11.68;6.65;;;12.80;99.90;;;;;;5093395;28;20021;-61
2023/01/14 11:06:09;;;;;;;12.18;6.00;;;13.50;99.90;;;;;;5093223;28;20388;-61
2023/01/14 11:08:46;;;;;;;13.50;6.30;;;13.40;99.90;;;;;;5092919;28;20044;-62
2023/01/14 11:11:19;;;;;;;10.55;6.00;;;13.30;99.90;;;;;;5092994;28;20128;-61
2023/01/14 11:13:48;;;;;;;11.20;7.05;;;13.20;99.90;;;;;;5092911;28;20498;-62
2023/01/14 11:16:25;;;;;;;10.45;5.78;;;14.60;99.90;;;;;;5092762;28;20046;-61
2023/01/14 11:19:03;;;;;;;15.50;5.45;;;15.30;99.90;;;;;;5092944;28;20480;-62
2023/01/14 11:21:39;;;;;;;9.35;5.25;;;15.70;99.90;;;;;;5093188;28;20016;-62
2023/01/14 11:24:25;;;;;;;12.20;5.95;;;15.90;99.90;;;;;;5092813;28;20111;-62
2023/01/14 11:27:11;;;;;;;8.30;5.55;;;17.50;99.90;;;;;;5092702;28;20024;-61
2023/01/14 11:29:45;;;;;;;8.00;4.85;;;18.20;99.90;;;;;;5093022;28;20044;-62
2023/01/14 11:32:14;;;;;;;7.35;4.18;;;18.40;99.90;;;;;;5092662;28;20047;-62
2023/01/14 11:34:50;;;;;;;6.07;4.45;;;18.30;99.90;;;;;;5091331;28;20400;-62
2023/01/14 11:37:33;;;;;;;10.35;7.18;;;16.70;99.90;;;;;;5092908;28;20067;-61
2023/01/14 11:40:01;;;;;;;9.02;5.40;;;17.40;99.90;;;;;;5092740;28;20080;-61
2023/01/14 11:42:26;;;;;;;8.73;4.70;;;18.40;99.90;;;;;;5092300;28;20101;-62
2023/01/14 11:45:04;;;;;;;6.88;4.10;;;19.00;99.90;;;;;;5092154;28;20074;-62
2023/01/14 11:47:43;;;;;;;6.80;4.00;;;18.80;99.90;;;;;;5092174;28;20028;-62
2023/01/14 11:50:18;;;;;;;5.90;3.67;;;19.30;99.90;;;;;;5092535;28;20431;-62
2023/01/14 11:53:18;;;;;;;11.57;4.05;;;20.00;99.90;;;;;;5092807;28;20023;-62
2023/01/14 11:55:47;;;;;;;7.10;3.35;;;19.70;99.90;;;;;;5091011;28;20040;-62
2023/01/14 11:58:27;;;;;;;6.47;3.38;;;19.50;99.90;;;;;;5092180;28;20369;-62
2023/01/14 12:01:01;;;;;;;10.88;4.18;;;19.80;99.90;;;;;;5092223;28;20034;-62
2023/01/14 12:03:34;;;;;;;5.25;3.10;;;20.00;99.90;;;;;;5092265;28;20031;-62
2023/01/14 12:06:11;;;;;;;6.38;2.63;;;20.70;99.90;;;;;;5092570;28;20587;-62
2023/01/14 12:08:39;;;;;;;6.80;3.20;;;20.30;99.90;;;;;;5091946;28;20442;-62
2023/01/14 12:11:13;;;;;;;4.93;3.28;;;19.40;99.90;;;;;;5091596;28;20024;-62
2023/01/14 12:16:49;;;;;;;5.82;2.50;;;19.50;99.90;;;;;;5092390;28;20074;-62
2023/01/14 12:19:28;;;;;;;10.45;2.90;;;18.80;99.90;;;;;;5092287;28;20032;-64
2023/01/14 12:22:15;;;;;;;7.05;2.70;;;18.90;99.90;;;;;;5092113;28;20036;-62
2023/01/14 12:25:08;;;;;;;7.32;2.50;;;18.80;99.90;;;;;;5091776;28;20020;-62
2023/01/14 12:27:58;;;;;;;5.70;2.50;;;19.50;99.90;;;;;;5092036;28;20035;-62
2023/01/14 12:30:55;;;;;;;8.35;2.72;;;19.70;99.90;;;;;;5092395;28;20035;-62
2023/01/14 12:33:30;;;;;;;7.55;2.60;;;19.40;99.90;;;;;;5091981;28;20448;-62
2023/01/14 12:36:14;;;;;;;6.72;2.70;;;19.10;99.90;;;;;;5091873;28;20070;-62
2023/01/14 12:47:46;;;;;;;8.77;2.97;;;18.70;99.90;;;;;;5030113;28;20669;-62
2023/01/14 12:50:15;;;;;;;9.00;2.70;;;18.80;99.90;;;;;;5029413;28;20089;-61
2023/01/14 12:52:51;;;;;;;7.47;2.35;;;19.20;99.90;;;;;;5029014;28;20498;-60
2023/01/14 12:55:25;;;;;;;7.28;2.80;;;18.90;99.90;;;;;;5029479;28;20497;-61
2023/01/14 12:57:53;;;;;;;9.82;2.95;;;18.90;99.90;;;;;;5033368;28;20036;-61
2023/01/14 13:00:30;;;;;;;10.25;2.95;;;18.30;99.90;;;;;;5033182;28;20038;-61
2023/01/14 13:02:59;;;;;;;5.68;2.30;;;18.00;99.90;;;;;;5033132;28;20041;-62
2023/01/14 13:05:37;;;;;;;9.93;3.10;;;17.80;99.90;;;;;;5032978;28;20104;-61
2023/01/14 13:08:07;;;;;;;11.45;2.45;;;17.70;99.90;;;;;;5032662;28;20022;-61
2023/01/14 13:10:35;;;;;;;8.70;2.67;;;17.50;99.90;;;;;;5032608;28;20049;-61
2023/01/14 13:13:03;;;;;;;6.38;2.28;;;17.70;99.90;;;;;;5032952;28;20076;-61
2023/01/14 13:15:37;;;;;;;5.50;2.30;;;17.70;99.90;;;;;;5038321;28;20036;-61
2023/01/14 13:18:05;;;;;;;6.13;2.22;;;17.80;99.90;;;;;;5074994;28;20044;-61
2023/01/14 13:20:40;;;;;;;6.97;2.67;;;17.60;99.90;;;;;;5074878;28;20028;-61
2023/01/14 13:23:10;;;;;;;7.07;2.30;;;17.60;99.90;;;;;;5074763;28;20028;-62
2023/01/14 13:25:43;;;;;;;5.70;2.28;;;17.50;99.90;;;;;;5074838;28;20085;-62
2023/01/14 13:28:11;;;;;;;6.05;2.28;;;17.40;99.90;;;;;;5074830;28;20032;-62
2023/01/14 13:30:53;;;;;;;8.25;2.70;;;17.30;99.90;;;;;;5074772;28;20405;-61
2023/01/14 13:33:32;;;;;;;8.45;2.67;;;17.20;99.90;;;;;;5074771;28;20020;-61
2023/01/14 13:36:09;;;;;;;9.07;3.38;;;17.20;99.90;;;;;;5074599;28;20059;-61
2023/01/14 13:39:01;;;;;;;8.88;2.55;;;17.10;99.90;;;;;;5075047;28;20021;-62
2023/01/14 13:41:49;;;;;;;7.47;3.30;;;16.80;99.90;;;;;;5074643;28;20025;-61